sensor_id;sensor_type;location;lat;lon;timestamp;P1;durP1;ratioP1;P2;durP2;ratioP2
4616;SDS011;2321;42.704;23.384;2023-04-10T00:01:07;493.07;;;172.43;;
4616;SDS011;2321;42.704;23.384;2023-04-10T00:03:34;529.67;;;175.33;;
4616;SDS011;2321;42.704;23.384;2023-04-10T00:06:03;546.67;;;180.03;;
4616;SDS011;2321;42.704;23.384;2023-04-10T00:08:31;583.13;;;196.03;;
4616;SDS011;2321;42.704;23.384;2023-04-10T00:10:58;543.23;;;183.27;;
4616;SDS011;2321;42.704;23.384;2023-04-10T00:13:25;545.80;;;168.63;;
4616;SDS011;2321;42.704;23.384;2023-04-10T00:15:52;545.30;;;163.13;;
4616;SDS011;2321;42.704;23.384;2023-04-10T00:18:19;640.50;;;201.40;;
4616;SDS011;2321;42.704;23.384;2023-04-10T00:20:45;590.57;;;191.40;;
4616;SDS011;2321;42.704;23.384;2023-04-10T00:23:14;653.83;;;192.53;;
4616;SDS011;2321;42.704;23.384;2023-04-10T00:25:41;700.43;;;207.80;;
4616;SDS011;2321;42.704;23.384;2023-04-10T00:28:07;487.20;;;157.63;;
4616;SDS011;2321;42.704;23.384;2023-04-10T00:30:35;517.83;;;177.27;;
4616;SDS011;2321;42.704;23.384;2023-04-10T00:33:01;516.40;;;184.70;;
4616;SDS011;2321;42.704;23.384;2023-04-10T00:35:28;555.93;;;177.57;;
4616;SDS011;2321;42.704;23.384;2023-04-10T00:37:55;633.67;;;212.90;;
4616;SDS011;2321;42.704;23.384;2023-04-10T00:40:24;786.93;;;238.90;;
4616;SDS011;2321;42.704;23.384;2023-04-10T00:42:51;573.83;;;197.70;;
4616;SDS011;2321;42.704;23.384;2023-04-10T00:45:18;670.97;;;219.20;;
4616;SDS011;2321;42.704;23.384;2023-04-10T00:47:45;671.67;;;261.13;;
4616;SDS011;2321;42.704;23.384;2023-04-10T00:50:12;657.67;;;212.60;;
4616;SDS011;2321;42.704;23.384;2023-04-10T00:52:39;517.13;;;177.30;;
4616;SDS011;2321;42.704;23.384;2023-04-10T00:55:06;554.20;;;199.20;;
4616;SDS011;2321;42.704;23.384;2023-04-10T00:57:35;532.40;;;178.67;;
4616;SDS011;2321;42.704;23.384;2023-04-10T01:00:03;525.43;;;185.60;;
4616;SDS011;2321;42.704;23.384;2023-04-10T01:02:30;501.67;;;192.60;;
4616;SDS011;2321;42.704;23.384;2023-04-10T01:04:57;475.37;;;183.17;;
4616;SDS011;2321;42.704;23.384;2023-04-10T01:07:27;470.97;;;179.60;;
4616;SDS011;2321;42.704;23.384;2023-04-10T01:10:04;469.80;;;199.53;;
4616;SDS011;2321;42.704;23.384;2023-04-10T01:12:50;462.53;;;158.47;;
4616;SDS011;2321;42.704;23.384;2023-04-10T01:15:25;500.53;;;170.60;;
4616;SDS011;2321;42.704;23.384;2023-04-10T01:17:56;491.83;;;192.13;;
4616;SDS011;2321;42.704;23.384;2023-04-10T01:20:30;503.53;;;178.73;;
4616;SDS011;2321;42.704;23.384;2023-04-10T01:23:11;477.90;;;171.30;;
4616;SDS011;2321;42.704;23.384;2023-04-10T01:26:10;461.93;;;158.80;;
4616;SDS011;2321;42.704;23.384;2023-04-10T01:28:48;475.17;;;169.73;;
4616;SDS011;2321;42.704;23.384;2023-04-10T01:31:20;457.80;;;168.83;;
4616;SDS011;2321;42.704;23.384;2023-04-10T01:33:56;417.30;;;155.47;;
4616;SDS011;2321;42.704;23.384;2023-04-10T01:36:26;408.83;;;148.03;;
4616;SDS011;2321;42.704;23.384;2023-04-10T01:38:57;426.57;;;173.87;;
4616;SDS011;2321;42.704;23.384;2023-04-10T01:41:24;352.17;;;150.90;;
4616;SDS011;2321;42.704;23.384;2023-04-10T01:43:54;346.70;;;186.90;;
4616;SDS011;2321;42.704;23.384;2023-04-10T01:46:23;387.80;;;144.50;;
4616;SDS011;2321;42.704;23.384;2023-04-10T01:48:52;437.63;;;175.33;;
4616;SDS011;2321;42.704;23.384;2023-04-10T01:51:21;580.90;;;208.37;;
4616;SDS011;2321;42.704;23.384;2023-04-10T01:53:49;429.27;;;153.93;;
4616;SDS011;2321;42.704;23.384;2023-04-10T01:56:17;419.80;;;182.10;;
4616;SDS011;2321;42.704;23.384;2023-04-10T01:58:44;360.93;;;150.63;;
4616;SDS011;2321;42.704;23.384;2023-04-10T02:01:18;373.07;;;150.60;;
4616;SDS011;2321;42.704;23.384;2023-04-10T02:03:45;354.47;;;137.47;;
4616;SDS011;2321;42.704;23.384;2023-04-10T02:06:13;336.23;;;140.03;;
4616;SDS011;2321;42.704;23.384;2023-04-10T02:08:49;321.40;;;151.80;;
4616;SDS011;2321;42.704;23.384;2023-04-10T02:11:22;340.00;;;158.53;;
4616;SDS011;2321;42.704;23.384;2023-04-10T02:13:57;311.80;;;131.87;;
4616;SDS011;2321;42.704;23.384;2023-04-10T02:16:29;313.90;;;189.03;;
4616;SDS011;2321;42.704;23.384;2023-04-10T02:18:58;273.27;;;132.73;;
4616;SDS011;2321;42.704;23.384;2023-04-10T02:21:27;292.57;;;152.40;;
4616;SDS011;2321;42.704;23.384;2023-04-10T02:23:55;286.13;;;131.97;;
4616;SDS011;2321;42.704;23.384;2023-04-10T02:26:23;305.57;;;140.17;;
4616;SDS011;2321;42.704;23.384;2023-04-10T02:28:50;338.27;;;146.60;;
4616;SDS011;2321;42.704;23.384;2023-04-10T02:31:17;315.60;;;139.90;;
4616;SDS011;2321;42.704;23.384;2023-04-10T02:33:45;292.23;;;130.17;;
4616;SDS011;2321;42.704;23.384;2023-04-10T02:36:12;318.43;;;138.30;;
4616;SDS011;2321;42.704;23.384;2023-04-10T02:38:39;318.27;;;157.60;;
4616;SDS011;2321;42.704;23.384;2023-04-10T02:41:06;329.67;;;137.57;;
4616;SDS011;2321;42.704;23.384;2023-04-10T02:43:32;329.77;;;140.00;;
4616;SDS011;2321;42.704;23.384;2023-04-10T02:45:59;400.87;;;148.83;;
4616;SDS011;2321;42.704;23.384;2023-04-10T02:48:26;328.60;;;158.80;;
4616;SDS011;2321;42.704;23.384;2023-04-10T02:50:57;430.27;;;153.07;;
4616;SDS011;2321;42.704;23.384;2023-04-10T02:53:24;304.73;;;128.73;;
4616;SDS011;2321;42.704;23.384;2023-04-10T02:55:51;520.73;;;191.93;;
4616;SDS011;2321;42.704;23.384;2023-04-10T02:58:19;241.70;;;128.10;;
4616;SDS011;2321;42.704;23.384;2023-04-10T03:00:49;247.73;;;129.50;;
4616;SDS011;2321;42.704;23.384;2023-04-10T03:03:17;238.77;;;121.53;;
4616;SDS011;2321;42.704;23.384;2023-04-10T03:05:44;205.63;;;102.50;;
4616;SDS011;2321;42.704;23.384;2023-04-10T03:08:14;206.60;;;121.17;;
4616;SDS011;2321;42.704;23.384;2023-04-10T03:10:42;220.70;;;109.03;;
4616;SDS011;2321;42.704;23.384;2023-04-10T03:13:10;201.43;;;110.83;;
4616;SDS011;2321;42.704;23.384;2023-04-10T03:15:37;221.67;;;115.87;;
4616;SDS011;2321;42.704;23.384;2023-04-10T03:18:04;196.70;;;101.87;;
4616;SDS011;2321;42.704;23.384;2023-04-10T03:20:31;194.33;;;112.90;;
4616;SDS011;2321;42.704;23.384;2023-04-10T03:22:58;195.17;;;105.53;;
4616;SDS011;2321;42.704;23.384;2023-04-10T03:25:26;189.13;;;104.90;;
4616;SDS011;2321;42.704;23.384;2023-04-10T03:27:53;183.43;;;99.90;;
4616;SDS011;2321;42.704;23.384;2023-04-10T03:30:20;221.57;;;110.57;;
4616;SDS011;2321;42.704;23.384;2023-04-10T03:32:47;248.07;;;113.87;;
4616;SDS011;2321;42.704;23.384;2023-04-10T03:35:14;254.00;;;116.13;;
4616;SDS011;2321;42.704;23.384;2023-04-10T03:37:41;270.87;;;128.63;;
4616;SDS011;2321;42.704;23.384;2023-04-10T03:40:08;274.97;;;123.93;;
4616;SDS011;2321;42.704;23.384;2023-04-10T03:42:37;275.27;;;120.20;;
4616;SDS011;2321;42.704;23.384;2023-04-10T03:45:04;282.63;;;121.87;;
4616;SDS011;2321;42.704;23.384;2023-04-10T03:47:32;281.33;;;118.97;;
4616;SDS011;2321;42.704;23.384;2023-04-10T03:49:59;307.10;;;118.63;;
4616;SDS011;2321;42.704;23.384;2023-04-10T03:52:26;285.17;;;114.23;;
4616;SDS011;2321;42.704;23.384;2023-04-10T03:54:53;273.47;;;102.10;;
4616;SDS011;2321;42.704;23.384;2023-04-10T03:57:20;252.27;;;99.57;;
4616;SDS011;2321;42.704;23.384;2023-04-10T03:59:48;267.97;;;108.63;;
4616;SDS011;2321;42.704;23.384;2023-04-10T04:02:15;287.80;;;111.07;;
4616;SDS011;2321;42.704;23.384;2023-04-10T04:04:42;273.60;;;109.20;;
4616;SDS011;2321;42.704;23.384;2023-04-10T04:07:09;275.50;;;112.63;;
4616;SDS011;2321;42.704;23.384;2023-04-10T04:09:37;279.93;;;100.90;;
4616;SDS011;2321;42.704;23.384;2023-04-10T04:12:05;274.80;;;105.57;;
4616;SDS011;2321;42.704;23.384;2023-04-10T04:14:32;308.93;;;105.50;;
4616;SDS011;2321;42.704;23.384;2023-04-10T04:17:00;295.17;;;108.70;;
4616;SDS011;2321;42.704;23.384;2023-04-10T04:19:27;323.60;;;108.10;;
4616;SDS011;2321;42.704;23.384;2023-04-10T04:21:54;346.40;;;109.93;;
4616;SDS011;2321;42.704;23.384;2023-04-10T04:24:21;494.93;;;136.13;;
4616;SDS011;2321;42.704;23.384;2023-04-10T04:26:48;215.93;;;90.37;;
4616;SDS011;2321;42.704;23.384;2023-04-10T04:29:15;199.97;;;90.63;;
4616;SDS011;2321;42.704;23.384;2023-04-10T04:31:42;193.63;;;94.40;;
4616;SDS011;2321;42.704;23.384;2023-04-10T04:34:10;199.73;;;99.13;;
4616;SDS011;2321;42.704;23.384;2023-04-10T04:36:37;203.10;;;93.27;;
4616;SDS011;2321;42.704;23.384;2023-04-10T04:39:04;218.03;;;98.70;;
4616;SDS011;2321;42.704;23.384;2023-04-10T04:41:31;195.70;;;107.07;;
4616;SDS011;2321;42.704;23.384;2023-04-10T04:43:58;188.50;;;86.87;;
4616;SDS011;2321;42.704;23.384;2023-04-10T04:46:26;149.63;;;79.20;;
4616;SDS011;2321;42.704;23.384;2023-04-10T04:48:53;203.70;;;99.53;;
4616;SDS011;2321;42.704;23.384;2023-04-10T04:51:21;206.13;;;97.10;;
4616;SDS011;2321;42.704;23.384;2023-04-10T04:53:48;194.37;;;98.67;;
4616;SDS011;2321;42.704;23.384;2023-04-10T04:56:15;209.73;;;105.07;;
4616;SDS011;2321;42.704;23.384;2023-04-10T04:58:42;207.07;;;93.17;;
4616;SDS011;2321;42.704;23.384;2023-04-10T05:01:08;188.37;;;106.50;;
4616;SDS011;2321;42.704;23.384;2023-04-10T05:03:36;199.37;;;90.87;;
4616;SDS011;2321;42.704;23.384;2023-04-10T05:06:03;187.30;;;96.53;;
4616;SDS011;2321;42.704;23.384;2023-04-10T05:08:31;199.60;;;99.47;;
4616;SDS011;2321;42.704;23.384;2023-04-10T05:10:58;192.43;;;104.57;;
4616;SDS011;2321;42.704;23.384;2023-04-10T05:13:25;175.10;;;98.70;;
4616;SDS011;2321;42.704;23.384;2023-04-10T05:15:51;183.03;;;99.30;;
4616;SDS011;2321;42.704;23.384;2023-04-10T05:18:18;211.77;;;108.70;;
4616;SDS011;2321;42.704;23.384;2023-04-10T05:20:47;194.40;;;101.73;;
4616;SDS011;2321;42.704;23.384;2023-04-10T05:23:14;188.03;;;107.13;;
4616;SDS011;2321;42.704;23.384;2023-04-10T05:25:43;231.10;;;109.70;;
4616;SDS011;2321;42.704;23.384;2023-04-10T05:28:10;199.43;;;114.67;;
4616;SDS011;2321;42.704;23.384;2023-04-10T05:30:37;174.30;;;117.70;;
4616;SDS011;2321;42.704;23.384;2023-04-10T05:33:03;193.13;;;115.20;;
4616;SDS011;2321;42.704;23.384;2023-04-10T05:35:30;179.07;;;109.37;;
4616;SDS011;2321;42.704;23.384;2023-04-10T05:37:57;192.57;;;115.23;;
4616;SDS011;2321;42.704;23.384;2023-04-10T05:40:24;181.90;;;108.27;;
4616;SDS011;2321;42.704;23.384;2023-04-10T05:42:53;237.77;;;128.97;;
4616;SDS011;2321;42.704;23.384;2023-04-10T05:45:20;194.67;;;115.77;;
4616;SDS011;2321;42.704;23.384;2023-04-10T05:47:47;212.83;;;120.67;;
4616;SDS011;2321;42.704;23.384;2023-04-10T05:50:13;212.17;;;128.67;;
4616;SDS011;2321;42.704;23.384;2023-04-10T05:52:40;198.27;;;122.47;;
4616;SDS011;2321;42.704;23.384;2023-04-10T05:55:08;221.23;;;126.57;;
4616;SDS011;2321;42.704;23.384;2023-04-10T05:57:35;176.33;;;117.53;;
4616;SDS011;2321;42.704;23.384;2023-04-10T06:00:04;209.17;;;127.03;;
4616;SDS011;2321;42.704;23.384;2023-04-10T06:02:32;196.27;;;130.87;;
4616;SDS011;2321;42.704;23.384;2023-04-10T06:04:59;225.23;;;134.93;;
4616;SDS011;2321;42.704;23.384;2023-04-10T06:07:26;198.43;;;123.63;;
4616;SDS011;2321;42.704;23.384;2023-04-10T06:09:53;207.43;;;134.47;;
4616;SDS011;2321;42.704;23.384;2023-04-10T06:12:20;204.87;;;125.80;;
4616;SDS011;2321;42.704;23.384;2023-04-10T06:14:47;172.50;;;112.13;;
4616;SDS011;2321;42.704;23.384;2023-04-10T06:17:15;194.40;;;140.23;;
4616;SDS011;2321;42.704;23.384;2023-04-10T06:19:42;68.33;;;38.00;;
4616;SDS011;2321;42.704;23.384;2023-04-10T06:22:09;179.03;;;124.17;;
4616;SDS011;2321;42.704;23.384;2023-04-10T06:24:35;154.97;;;101.90;;
4616;SDS011;2321;42.704;23.384;2023-04-10T06:27:02;62.67;;;23.10;;
4616;SDS011;2321;42.704;23.384;2023-04-10T06:29:29;43.53;;;23.57;;
4616;SDS011;2321;42.704;23.384;2023-04-10T06:31:56;57.10;;;27.00;;
4616;SDS011;2321;42.704;23.384;2023-04-10T06:34:24;51.87;;;27.97;;
4616;SDS011;2321;42.704;23.384;2023-04-10T06:36:51;54.97;;;38.00;;
4616;SDS011;2321;42.704;23.384;2023-04-10T06:39:18;60.10;;;39.40;;
4616;SDS011;2321;42.704;23.384;2023-04-10T06:41:45;119.67;;;90.87;;
4616;SDS011;2321;42.704;23.384;2023-04-10T06:44:12;45.97;;;32.40;;
4616;SDS011;2321;42.704;23.384;2023-04-10T06:46:39;187.50;;;131.83;;
4616;SDS011;2321;42.704;23.384;2023-04-10T06:49:05;176.00;;;123.00;;
4616;SDS011;2321;42.704;23.384;2023-04-10T06:51:34;163.53;;;119.23;;
4616;SDS011;2321;42.704;23.384;2023-04-10T06:54:00;48.40;;;22.83;;
4616;SDS011;2321;42.704;23.384;2023-04-10T06:56:27;35.63;;;8.90;;
4616;SDS011;2321;42.704;23.384;2023-04-10T06:58:54;44.23;;;13.07;;
4616;SDS011;2321;42.704;23.384;2023-04-10T07:01:21;38.37;;;11.67;;
4616;SDS011;2321;42.704;23.384;2023-04-10T07:03:48;30.83;;;8.57;;
4616;SDS011;2321;42.704;23.384;2023-04-10T07:06:15;32.33;;;9.03;;
4616;SDS011;2321;42.704;23.384;2023-04-10T07:08:43;26.97;;;9.20;;
4616;SDS011;2321;42.704;23.384;2023-04-10T07:11:10;43.47;;;10.93;;
4616;SDS011;2321;42.704;23.384;2023-04-10T07:13:37;46.70;;;10.87;;
4616;SDS011;2321;42.704;23.384;2023-04-10T07:16:04;59.70;;;13.03;;
4616;SDS011;2321;42.704;23.384;2023-04-10T07:18:35;33.33;;;9.40;;
4616;SDS011;2321;42.704;23.384;2023-04-10T07:21:07;43.17;;;11.30;;
4616;SDS011;2321;42.704;23.384;2023-04-10T07:23:35;46.17;;;11.93;;
4616;SDS011;2321;42.704;23.384;2023-04-10T07:26:03;34.10;;;9.70;;
4616;SDS011;2321;42.704;23.384;2023-04-10T07:28:31;44.27;;;11.00;;
4616;SDS011;2321;42.704;23.384;2023-04-10T07:30:58;44.57;;;10.67;;
4616;SDS011;2321;42.704;23.384;2023-04-10T07:33:25;49.77;;;12.97;;
4616;SDS011;2321;42.704;23.384;2023-04-10T07:35:52;32.17;;;8.43;;
4616;SDS011;2321;42.704;23.384;2023-04-10T07:38:19;48.83;;;13.70;;
4616;SDS011;2321;42.704;23.384;2023-04-10T07:40:48;43.53;;;12.10;;
4616;SDS011;2321;42.704;23.384;2023-04-10T07:43:16;54.23;;;11.50;;
4616;SDS011;2321;42.704;23.384;2023-04-10T07:45:43;55.63;;;12.90;;
4616;SDS011;2321;42.704;23.384;2023-04-10T07:48:10;63.27;;;14.80;;
4616;SDS011;2321;42.704;23.384;2023-04-10T07:50:37;65.33;;;14.97;;
4616;SDS011;2321;42.704;23.384;2023-04-10T07:53:04;39.30;;;10.50;;
4616;SDS011;2321;42.704;23.384;2023-04-10T07:55:35;65.93;;;13.47;;
4616;SDS011;2321;42.704;23.384;2023-04-10T07:58:03;51.17;;;13.37;;
4616;SDS011;2321;42.704;23.384;2023-04-10T08:00:31;56.87;;;13.90;;
4616;SDS011;2321;42.704;23.384;2023-04-10T08:02:58;71.23;;;13.97;;
4616;SDS011;2321;42.704;23.384;2023-04-10T08:05:25;77.60;;;38.10;;
4616;SDS011;2321;42.704;23.384;2023-04-10T08:07:52;93.23;;;58.10;;
4616;SDS011;2321;42.704;23.384;2023-04-10T08:10:19;79.13;;;57.77;;
4616;SDS011;2321;42.704;23.384;2023-04-10T08:12:46;126.73;;;62.90;;
4616;SDS011;2321;42.704;23.384;2023-04-10T08:15:13;68.93;;;54.70;;
4616;SDS011;2321;42.704;23.384;2023-04-10T08:17:42;97.20;;;60.50;;
4616;SDS011;2321;42.704;23.384;2023-04-10T08:20:09;152.80;;;112.83;;
4616;SDS011;2321;42.704;23.384;2023-04-10T08:22:36;123.83;;;107.73;;
4616;SDS011;2321;42.704;23.384;2023-04-10T08:25:03;97.33;;;87.03;;
4616;SDS011;2321;42.704;23.384;2023-04-10T08:27:31;94.63;;;69.10;;
4616;SDS011;2321;42.704;23.384;2023-04-10T08:29:58;105.47;;;77.20;;
4616;SDS011;2321;42.704;23.384;2023-04-10T08:32:24;93.40;;;63.40;;
4616;SDS011;2321;42.704;23.384;2023-04-10T08:34:54;113.40;;;59.70;;
4616;SDS011;2321;42.704;23.384;2023-04-10T08:37:21;78.23;;;53.73;;
4616;SDS011;2321;42.704;23.384;2023-04-10T08:39:50;101.80;;;53.80;;
4616;SDS011;2321;42.704;23.384;2023-04-10T08:42:17;78.60;;;60.17;;
4616;SDS011;2321;42.704;23.384;2023-04-10T08:44:44;81.23;;;48.53;;
4616;SDS011;2321;42.704;23.384;2023-04-10T08:47:13;75.73;;;50.33;;
4616;SDS011;2321;42.704;23.384;2023-04-10T08:49:45;69.90;;;47.93;;
4616;SDS011;2321;42.704;23.384;2023-04-10T08:52:19;85.97;;;64.20;;
4616;SDS011;2321;42.704;23.384;2023-04-10T08:54:49;124.30;;;73.37;;
4616;SDS011;2321;42.704;23.384;2023-04-10T08:57:19;107.63;;;59.10;;
4616;SDS011;2321;42.704;23.384;2023-04-10T08:59:46;86.20;;;60.80;;
4616;SDS011;2321;42.704;23.384;2023-04-10T09:02:14;109.73;;;76.00;;
4616;SDS011;2321;42.704;23.384;2023-04-10T09:04:42;104.87;;;78.37;;
4616;SDS011;2321;42.704;23.384;2023-04-10T09:07:13;90.63;;;71.07;;
4616;SDS011;2321;42.704;23.384;2023-04-10T09:09:42;103.27;;;77.53;;
4616;SDS011;2321;42.704;23.384;2023-04-10T09:12:09;169.40;;;142.30;;
4616;SDS011;2321;42.704;23.384;2023-04-10T09:14:39;187.77;;;159.60;;
4616;SDS011;2321;42.704;23.384;2023-04-10T09:17:11;212.93;;;170.50;;
4616;SDS011;2321;42.704;23.384;2023-04-10T09:19:42;212.07;;;172.93;;
4616;SDS011;2321;42.704;23.384;2023-04-10T09:22:09;213.73;;;164.73;;
4616;SDS011;2321;42.704;23.384;2023-04-10T09:24:37;213.40;;;186.33;;
4616;SDS011;2321;42.704;23.384;2023-04-10T09:27:06;206.63;;;184.67;;
4616;SDS011;2321;42.704;23.384;2023-04-10T09:29:43;224.27;;;194.17;;
4616;SDS011;2321;42.704;23.384;2023-04-10T09:32:12;231.17;;;199.17;;
4616;SDS011;2321;42.704;23.384;2023-04-10T09:34:52;247.17;;;189.00;;
4616;SDS011;2321;42.704;23.384;2023-04-10T09:37:21;243.97;;;209.63;;
4616;SDS011;2321;42.704;23.384;2023-04-10T09:39:48;280.33;;;220.00;;
4616;SDS011;2321;42.704;23.384;2023-04-10T09:42:16;93.90;;;55.67;;
4616;SDS011;2321;42.704;23.384;2023-04-10T09:44:55;71.00;;;47.00;;
4616;SDS011;2321;42.704;23.384;2023-04-10T09:47:22;86.50;;;46.60;;
4616;SDS011;2321;42.704;23.384;2023-04-10T09:49:50;78.90;;;40.40;;
4616;SDS011;2321;42.704;23.384;2023-04-10T09:52:18;70.47;;;27.90;;
4616;SDS011;2321;42.704;23.384;2023-04-10T09:54:45;59.83;;;20.63;;
4616;SDS011;2321;42.704;23.384;2023-04-10T09:57:12;93.50;;;79.70;;
4616;SDS011;2321;42.704;23.384;2023-04-10T09:59:45;147.03;;;121.07;;
4616;SDS011;2321;42.704;23.384;2023-04-10T10:02:16;153.80;;;124.13;;
4616;SDS011;2321;42.704;23.384;2023-04-10T10:04:43;146.97;;;131.93;;
4616;SDS011;2321;42.704;23.384;2023-04-10T10:07:12;135.00;;;119.07;;
4616;SDS011;2321;42.704;23.384;2023-04-10T10:09:40;167.23;;;145.07;;
4616;SDS011;2321;42.704;23.384;2023-04-10T10:12:08;140.47;;;123.97;;
4616;SDS011;2321;42.704;23.384;2023-04-10T10:14:38;182.27;;;163.10;;
4616;SDS011;2321;42.704;23.384;2023-04-10T10:17:13;267.50;;;240.23;;
4616;SDS011;2321;42.704;23.384;2023-04-10T10:19:44;219.30;;;195.77;;
4616;SDS011;2321;42.704;23.384;2023-04-10T10:22:18;265.90;;;239.43;;
4616;SDS011;2321;42.704;23.384;2023-04-10T10:24:47;257.90;;;228.87;;
4616;SDS011;2321;42.704;23.384;2023-04-10T10:27:15;361.47;;;324.03;;
4616;SDS011;2321;42.704;23.384;2023-04-10T10:29:44;245.13;;;218.47;;
4616;SDS011;2321;42.704;23.384;2023-04-10T10:32:13;255.10;;;228.50;;
4616;SDS011;2321;42.704;23.384;2023-04-10T10:34:43;254.43;;;224.77;;
4616;SDS011;2321;42.704;23.384;2023-04-10T10:37:11;423.83;;;362.00;;
4616;SDS011;2321;42.704;23.384;2023-04-10T10:39:41;345.93;;;283.40;;
4616;SDS011;2321;42.704;23.384;2023-04-10T10:42:17;187.53;;;136.93;;
4616;SDS011;2321;42.704;23.384;2023-04-10T10:44:51;133.53;;;85.83;;
4616;SDS011;2321;42.704;23.384;2023-04-10T10:47:26;120.17;;;68.97;;
4616;SDS011;2321;42.704;23.384;2023-04-10T10:49:56;264.57;;;236.27;;
4616;SDS011;2321;42.704;23.384;2023-04-10T10:52:40;340.33;;;249.00;;
4616;SDS011;2321;42.704;23.384;2023-04-10T10:55:27;326.23;;;251.83;;
4616;SDS011;2321;42.704;23.384;2023-04-10T10:57:56;269.03;;;209.97;;
4616;SDS011;2321;42.704;23.384;2023-04-10T11:01:02;346.77;;;268.47;;
4616;SDS011;2321;42.704;23.384;2023-04-10T11:03:43;424.70;;;356.87;;
4616;SDS011;2321;42.704;23.384;2023-04-10T11:06:11;401.90;;;333.87;;
4616;SDS011;2321;42.704;23.384;2023-04-10T11:08:41;423.77;;;325.43;;
4616;SDS011;2321;42.704;23.384;2023-04-10T11:11:12;375.23;;;325.73;;
4616;SDS011;2321;42.704;23.384;2023-04-10T11:13:41;430.97;;;332.67;;
4616;SDS011;2321;42.704;23.384;2023-04-10T11:16:41;141.57;;;107.97;;
4616;SDS011;2321;42.704;23.384;2023-04-10T11:19:09;342.87;;;304.80;;
4616;SDS011;2321;42.704;23.384;2023-04-10T11:24:26;340.27;;;259.50;;
4616;SDS011;2321;42.704;23.384;2023-04-10T11:26:53;345.20;;;261.73;;
4616;SDS011;2321;42.704;23.384;2023-04-10T11:29:33;363.63;;;288.70;;
4616;SDS011;2321;42.704;23.384;2023-04-10T11:32:02;317.30;;;250.30;;
4616;SDS011;2321;42.704;23.384;2023-04-10T11:34:30;325.30;;;239.37;;
4616;SDS011;2321;42.704;23.384;2023-04-10T11:36:58;277.73;;;227.07;;
4616;SDS011;2321;42.704;23.384;2023-04-10T11:39:27;293.50;;;227.00;;
4616;SDS011;2321;42.704;23.384;2023-04-10T11:41:55;311.33;;;253.73;;
4616;SDS011;2321;42.704;23.384;2023-04-10T11:44:26;88.00;;;58.73;;
4616;SDS011;2321;42.704;23.384;2023-04-10T11:46:55;136.53;;;122.00;;
4616;SDS011;2321;42.704;23.384;2023-04-10T11:49:24;205.30;;;184.17;;
4616;SDS011;2321;42.704;23.384;2023-04-10T11:51:52;128.90;;;111.87;;
4616;SDS011;2321;42.704;23.384;2023-04-10T11:54:20;122.40;;;97.73;;
4616;SDS011;2321;42.704;23.384;2023-04-10T11:56:55;108.13;;;75.50;;
4616;SDS011;2321;42.704;23.384;2023-04-10T11:59:25;129.60;;;109.97;;
4616;SDS011;2321;42.704;23.384;2023-04-10T12:01:53;241.17;;;213.00;;
4616;SDS011;2321;42.704;23.384;2023-04-10T12:04:29;377.63;;;313.70;;
4616;SDS011;2321;42.704;23.384;2023-04-10T12:06:56;263.83;;;226.13;;
4616;SDS011;2321;42.704;23.384;2023-04-10T12:09:23;256.03;;;212.53;;
4616;SDS011;2321;42.704;23.384;2023-04-10T12:11:52;212.10;;;172.60;;
4616;SDS011;2321;42.704;23.384;2023-04-10T12:14:21;157.47;;;132.10;;
4616;SDS011;2321;42.704;23.384;2023-04-10T12:16:49;160.90;;;127.47;;
4616;SDS011;2321;42.704;23.384;2023-04-10T12:19:17;172.63;;;133.63;;
4616;SDS011;2321;42.704;23.384;2023-04-10T12:21:46;173.83;;;121.33;;
4616;SDS011;2321;42.704;23.384;2023-04-10T12:24:28;182.50;;;121.33;;
4616;SDS011;2321;42.704;23.384;2023-04-10T12:27:07;163.70;;;108.17;;
4616;SDS011;2321;42.704;23.384;2023-04-10T12:29:34;189.37;;;116.60;;
4616;SDS011;2321;42.704;23.384;2023-04-10T12:32:06;268.53;;;145.53;;
4616;SDS011;2321;42.704;23.384;2023-04-10T12:34:33;107.57;;;66.93;;
4616;SDS011;2321;42.704;23.384;2023-04-10T12:37:02;262.63;;;154.70;;
4616;SDS011;2321;42.704;23.384;2023-04-10T12:39:30;265.80;;;139.27;;
4616;SDS011;2321;42.704;23.384;2023-04-10T12:42:09;285.63;;;133.37;;
4616;SDS011;2321;42.704;23.384;2023-04-10T12:44:48;283.43;;;132.50;;
4616;SDS011;2321;42.704;23.384;2023-04-10T12:47:15;306.80;;;141.33;;
4616;SDS011;2321;42.704;23.384;2023-04-10T12:52:32;301.70;;;141.70;;
4616;SDS011;2321;42.704;23.384;2023-04-10T12:55:09;287.00;;;144.23;;
4616;SDS011;2321;42.704;23.384;2023-04-10T12:57:37;311.93;;;142.60;;
4616;SDS011;2321;42.704;23.384;2023-04-10T13:00:05;292.10;;;141.13;;
4616;SDS011;2321;42.704;23.384;2023-04-10T13:02:33;132.20;;;85.23;;
4616;SDS011;2321;42.704;23.384;2023-04-10T13:05:01;152.30;;;94.63;;
4616;SDS011;2321;42.704;23.384;2023-04-10T13:07:28;159.70;;;91.50;;
4616;SDS011;2321;42.704;23.384;2023-04-10T13:09:56;329.73;;;143.87;;
4616;SDS011;2321;42.704;23.384;2023-04-10T13:12:23;338.93;;;151.70;;
4616;SDS011;2321;42.704;23.384;2023-04-10T13:14:50;411.87;;;191.30;;
4616;SDS011;2321;42.704;23.384;2023-04-10T13:17:18;404.87;;;163.33;;
4616;SDS011;2321;42.704;23.384;2023-04-10T13:19:44;393.13;;;155.70;;
4616;SDS011;2321;42.704;23.384;2023-04-10T13:22:11;414.17;;;178.53;;
4616;SDS011;2321;42.704;23.384;2023-04-10T13:24:38;466.50;;;221.23;;
4616;SDS011;2321;42.704;23.384;2023-04-10T13:27:06;484.50;;;227.57;;
4616;SDS011;2321;42.704;23.384;2023-04-10T13:29:33;509.57;;;245.73;;
4616;SDS011;2321;42.704;23.384;2023-04-10T13:32:00;429.30;;;232.33;;
4616;SDS011;2321;42.704;23.384;2023-04-10T13:34:29;483.93;;;235.97;;
4616;SDS011;2321;42.704;23.384;2023-04-10T13:36:56;514.83;;;290.60;;
4616;SDS011;2321;42.704;23.384;2023-04-10T13:39:24;544.47;;;264.17;;
4616;SDS011;2321;42.704;23.384;2023-04-10T13:41:51;535.67;;;304.00;;
4616;SDS011;2321;42.704;23.384;2023-04-10T13:44:19;699.27;;;313.87;;
4616;SDS011;2321;42.704;23.384;2023-04-10T13:46:46;517.67;;;285.30;;
4616;SDS011;2321;42.704;23.384;2023-04-10T13:49:13;371.37;;;235.10;;
4616;SDS011;2321;42.704;23.384;2023-04-10T13:51:42;342.00;;;241.33;;
4616;SDS011;2321;42.704;23.384;2023-04-10T13:54:09;358.30;;;247.53;;
4616;SDS011;2321;42.704;23.384;2023-04-10T13:56:36;354.77;;;241.57;;
4616;SDS011;2321;42.704;23.384;2023-04-10T13:59:03;376.90;;;264.87;;
4616;SDS011;2321;42.704;23.384;2023-04-10T14:01:32;424.17;;;314.17;;
4616;SDS011;2321;42.704;23.384;2023-04-10T14:03:59;480.80;;;319.47;;
4616;SDS011;2321;42.704;23.384;2023-04-10T14:06:25;511.20;;;348.03;;
4616;SDS011;2321;42.704;23.384;2023-04-10T14:08:52;378.30;;;282.33;;
4616;SDS011;2321;42.704;23.384;2023-04-10T14:11:19;142.00;;;115.53;;
4616;SDS011;2321;42.704;23.384;2023-04-10T14:13:47;99.87;;;81.87;;
4616;SDS011;2321;42.704;23.384;2023-04-10T14:16:14;94.17;;;61.63;;
4616;SDS011;2321;42.704;23.384;2023-04-10T14:18:42;89.23;;;56.70;;
4616;SDS011;2321;42.704;23.384;2023-04-10T14:21:09;123.87;;;63.53;;
4616;SDS011;2321;42.704;23.384;2023-04-10T14:23:36;104.13;;;70.63;;
4616;SDS011;2321;42.704;23.384;2023-04-10T14:26:03;76.43;;;57.07;;
4616;SDS011;2321;42.704;23.384;2023-04-10T14:28:30;81.03;;;54.00;;
4616;SDS011;2321;42.704;23.384;2023-04-10T14:30:57;93.53;;;54.90;;